sensor_id;sensor_type;location;lat;lon;timestamp;temperature;humidity
1976;DHT22;988;48.016;7.800;2023-08-12T00:00:49;21.40;99.90
1976;DHT22;988;48.016;7.800;2023-08-12T00:03:15;21.50;99.90
1976;DHT22;988;48.016;7.800;2023-08-12T00:05:41;21.50;99.90
1976;DHT22;988;48.016;7.800;2023-08-12T00:08:08;21.50;99.90
1976;DHT22;988;48.016;7.800;2023-08-12T00:10:33;21.70;99.90
1976;DHT22;988;48.016;7.800;2023-08-12T00:12:59;21.60;99.90
1976;DHT22;988;48.016;7.800;2023-08-12T00:15:24;21.40;99.90
1976;DHT22;988;48.016;7.800;2023-08-12T00:17:50;21.50;99.90
1976;DHT22;988;48.016;7.800;2023-08-12T00:20:16;21.40;99.90
1976;DHT22;988;48.016;7.800;2023-08-12T00:22:41;21.50;99.90
1976;DHT22;988;48.016;7.800;2023-08-12T00:25:07;21.60;99.90
1976;DHT22;988;48.016;7.800;2023-08-12T00:27:33;21.60;99.90
1976;DHT22;988;48.016;7.800;2023-08-12T00:29:58;21.50;99.90
1976;DHT22;988;48.016;7.800;2023-08-12T00:32:23;21.20;99.90
1976;DHT22;988;48.016;7.800;2023-08-12T00:34:49;21.00;99.90
1976;DHT22;988;48.016;7.800;2023-08-12T00:37:15;20.90;99.90
1976;DHT22;988;48.016;7.800;2023-08-12T00:39:40;21.30;99.90
1976;DHT22;988;48.016;7.800;2023-08-12T00:42:06;21.40;99.90
1976;DHT22;988;48.016;7.800;2023-08-12T00:44:31;21.70;99.90
1976;DHT22;988;48.016;7.800;2023-08-12T00:46:56;21.70;99.90
1976;DHT22;988;48.016;7.800;2023-08-12T00:49:22;21.60;99.90
1976;DHT22;988;48.016;7.800;2023-08-12T00:51:49;21.50;99.90
1976;DHT22;988;48.016;7.800;2023-08-12T00:54:15;21.40;99.90
1976;DHT22;988;48.016;7.800;2023-08-12T00:56:41;21.60;99.90
1976;DHT22;988;48.016;7.800;2023-08-12T00:59:07;21.60;99.90
1976;DHT22;988;48.016;7.800;2023-08-12T01:01:34;21.70;99.90
1976;DHT22;988;48.016;7.800;2023-08-12T01:03:59;21.80;99.90
1976;DHT22;988;48.016;7.800;2023-08-12T01:06:25;21.90;99.90
1976;DHT22;988;48.016;7.800;2023-08-12T01:08:51;21.80;99.90
1976;DHT22;988;48.016;7.800;2023-08-12T01:11:20;22.00;99.90
1976;DHT22;988;48.016;7.800;2023-08-12T01:16:12;22.20;99.90
1976;DHT22;988;48.016;7.800;2023-08-12T01:18:38;22.60;99.90
1976;DHT22;988;48.016;7.800;2023-08-12T01:21:05;22.20;99.90
1976;DHT22;988;48.016;7.800;2023-08-12T01:23:32;22.30;99.90
1976;DHT22;988;48.016;7.800;2023-08-12T01:25:58;22.30;99.90
1976;DHT22;988;48.016;7.800;2023-08-12T01:28:23;22.30;99.90
1976;DHT22;988;48.016;7.800;2023-08-12T01:30:56;22.40;99.90
1976;DHT22;988;48.016;7.800;2023-08-12T01:33:31;22.70;99.90
1976;DHT22;988;48.016;7.800;2023-08-12T01:36:00;22.50;99.90
1976;DHT22;988;48.016;7.800;2023-08-12T01:38:27;22.60;99.90
1976;DHT22;988;48.016;7.800;2023-08-12T01:40:53;22.30;99.90
1976;DHT22;988;48.016;7.800;2023-08-12T01:43:19;22.40;99.90
1976;DHT22;988;48.016;7.800;2023-08-12T01:45:45;22.40;99.90
1976;DHT22;988;48.016;7.800;2023-08-12T01:48:10;22.40;99.90
1976;DHT22;988;48.016;7.800;2023-08-12T01:50:36;22.40;99.90
1976;DHT22;988;48.016;7.800;2023-08-12T01:53:01;22.30;99.90
1976;DHT22;988;48.016;7.800;2023-08-12T01:55:27;22.50;99.90
1976;DHT22;988;48.016;7.800;2023-08-12T01:57:52;22.80;99.90
1976;DHT22;988;48.016;7.800;2023-08-12T02:00:18;22.80;99.90
1976;DHT22;988;48.016;7.800;2023-08-12T02:02:43;22.80;99.90
1976;DHT22;988;48.016;7.800;2023-08-12T02:05:12;22.70;99.90
1976;DHT22;988;48.016;7.800;2023-08-12T02:07:39;22.60;99.90
1976;DHT22;988;48.016;7.800;2023-08-12T02:10:04;22.90;99.90
1976;DHT22;988;48.016;7.800;2023-08-12T02:12:30;22.90;99.90
1976;DHT22;988;48.016;7.800;2023-08-12T02:14:55;22.90;99.90
1976;DHT22;988;48.016;7.800;2023-08-12T02:17:21;23.10;99.90
1976;DHT22;988;48.016;7.800;2023-08-12T02:19:46;22.80;99.90
1976;DHT22;988;48.016;7.800;2023-08-12T02:22:12;22.80;99.90
1976;DHT22;988;48.016;7.800;2023-08-12T02:24:37;22.60;99.90
1976;DHT22;988;48.016;7.800;2023-08-12T02:27:03;22.60;99.90
1976;DHT22;988;48.016;7.800;2023-08-12T02:29:28;22.70;99.90
1976;DHT22;988;48.016;7.800;2023-08-12T02:31:54;22.80;99.90
1976;DHT22;988;48.016;7.800;2023-08-12T02:34:19;23.00;99.90
1976;DHT22;988;48.016;7.800;2023-08-12T02:36:45;22.90;99.90
1976;DHT22;988;48.016;7.800;2023-08-12T02:39:11;22.80;99.90
1976;DHT22;988;48.016;7.800;2023-08-12T02:41:36;22.90;99.90
1976;DHT22;988;48.016;7.800;2023-08-12T02:44:02;22.70;99.90
1976;DHT22;988;48.016;7.800;2023-08-12T02:46:27;22.60;99.90
1976;DHT22;988;48.016;7.800;2023-08-12T02:48:53;22.40;99.90
1976;DHT22;988;48.016;7.800;2023-08-12T02:51:18;22.50;99.90
1976;DHT22;988;48.016;7.800;2023-08-12T02:53:44;22.60;99.90
1976;DHT22;988;48.016;7.800;2023-08-12T02:56:09;22.50;99.90
1976;DHT22;988;48.016;7.800;2023-08-12T02:58:35;22.50;99.90
1976;DHT22;988;48.016;7.800;2023-08-12T03:01:00;22.60;99.90
1976;DHT22;988;48.016;7.800;2023-08-12T03:03:26;22.40;99.90
1976;DHT22;988;48.016;7.800;2023-08-12T03:05:51;22.50;99.90
1976;DHT22;988;48.016;7.800;2023-08-12T03:08:17;22.70;99.90
1976;DHT22;988;48.016;7.800;2023-08-12T03:10:44;22.80;99.90
1976;DHT22;988;48.016;7.800;2023-08-12T03:13:09;22.20;99.90
1976;DHT22;988;48.016;7.800;2023-08-12T03:15:38;22.10;99.90
1976;DHT22;988;48.016;7.800;2023-08-12T03:18:03;22.30;99.90
1976;DHT22;988;48.016;7.800;2023-08-12T03:20:29;22.20;99.90
1976;DHT22;988;48.016;7.800;2023-08-12T03:22:54;22.30;99.90
1976;DHT22;988;48.016;7.800;2023-08-12T03:25:20;22.20;99.90
1976;DHT22;988;48.016;7.800;2023-08-12T03:27:45;22.30;99.90
1976;DHT22;988;48.016;7.800;2023-08-12T03:30:11;22.20;99.90
1976;DHT22;988;48.016;7.800;2023-08-12T03:32:37;22.30;99.90
1976;DHT22;988;48.016;7.800;2023-08-12T03:35:02;21.90;99.90
1976;DHT22;988;48.016;7.800;2023-08-12T03:37:29;21.90;99.90
1976;DHT22;988;48.016;7.800;2023-08-12T03:39:54;21.90;99.90
1976;DHT22;988;48.016;7.800;2023-08-12T03:42:20;22.10;99.90
1976;DHT22;988;48.016;7.800;2023-08-12T03:44:45;22.00;99.90
1976;DHT22;988;48.016;7.800;2023-08-12T03:47:11;22.20;99.90
1976;DHT22;988;48.016;7.800;2023-08-12T03:49:37;22.40;99.90
1976;DHT22;988;48.016;7.800;2023-08-12T03:52:02;22.30;99.90
1976;DHT22;988;48.016;7.800;2023-08-12T03:54:28;22.30;99.90
1976;DHT22;988;48.016;7.800;2023-08-12T03:56:53;22.30;99.90
1976;DHT22;988;48.016;7.800;2023-08-12T03:59:19;21.80;99.90
1976;DHT22;988;48.016;7.800;2023-08-12T04:01:44;21.50;99.90
1976;DHT22;988;48.016;7.800;2023-08-12T04:04:10;21.60;99.90
1976;DHT22;988;48.016;7.800;2023-08-12T04:06:36;21.80;99.90
1976;DHT22;988;48.016;7.800;2023-08-12T04:09:02;21.80;99.90
1976;DHT22;988;48.016;7.800;2023-08-12T04:11:28;21.90;99.90
1976;DHT22;988;48.016;7.800;2023-08-12T04:13:53;21.90;99.90
1976;DHT22;988;48.016;7.800;2023-08-12T04:16:19;22.10;99.90
1976;DHT22;988;48.016;7.800;2023-08-12T04:18:44;22.00;99.90
1976;DHT22;988;48.016;7.800;2023-08-12T04:21:11;21.60;99.90
1976;DHT22;988;48.016;7.800;2023-08-12T04:23:37;21.50;99.90
1976;DHT22;988;48.016;7.800;2023-08-12T04:26:04;21.70;99.90
1976;DHT22;988;48.016;7.800;2023-08-12T04:28:30;21.80;99.90
1976;DHT22;988;48.016;7.800;2023-08-12T04:30:55;21.90;99.90
1976;DHT22;988;48.016;7.800;2023-08-12T04:33:21;22.20;99.90
1976;DHT22;988;48.016;7.800;2023-08-12T04:35:46;22.30;99.90
1976;DHT22;988;48.016;7.800;2023-08-12T04:38:11;21.90;99.90
1976;DHT22;988;48.016;7.800;2023-08-12T04:40:40;22.00;99.90
1976;DHT22;988;48.016;7.800;2023-08-12T04:43:05;22.10;99.90
1976;DHT22;988;48.016;7.800;2023-08-12T04:45:31;22.00;99.90
1976;DHT22;988;48.016;7.800;2023-08-12T04:47:57;21.80;99.90
1976;DHT22;988;48.016;7.800;2023-08-12T04:50:23;21.90;99.90
1976;DHT22;988;48.016;7.800;2023-08-12T04:52:48;22.00;99.90
1976;DHT22;988;48.016;7.800;2023-08-12T04:55:14;22.00;99.90
1976;DHT22;988;48.016;7.800;2023-08-12T04:57:39;22.10;99.90
1976;DHT22;988;48.016;7.800;2023-08-12T05:00:05;22.00;99.90
1976;DHT22;988;48.016;7.800;2023-08-12T05:02:33;22.10;99.90
1976;DHT22;988;48.016;7.800;2023-08-12T05:04:59;21.70;99.90
1976;DHT22;988;48.016;7.800;2023-08-12T05:07:24;21.70;99.90
1976;DHT22;988;48.016;7.800;2023-08-12T05:09:50;21.60;99.90
1976;DHT22;988;48.016;7.800;2023-08-12T05:12:15;21.80;99.90
1976;DHT22;988;48.016;7.800;2023-08-12T05:14:41;22.00;99.90
1976;DHT22;988;48.016;7.800;2023-08-12T05:17:07;22.00;99.90
1976;DHT22;988;48.016;7.800;2023-08-12T05:19:32;22.20;99.90
1976;DHT22;988;48.016;7.800;2023-08-12T05:21:58;21.50;99.90
1976;DHT22;988;48.016;7.800;2023-08-12T05:24:23;21.60;99.90
1976;DHT22;988;48.016;7.800;2023-08-12T05:26:49;21.90;99.90
1976;DHT22;988;48.016;7.800;2023-08-12T05:29:14;21.50;99.90
1976;DHT22;988;48.016;7.800;2023-08-12T05:31:40;21.10;99.90
1976;DHT22;988;48.016;7.800;2023-08-12T05:34:05;21.40;99.90
1976;DHT22;988;48.016;7.800;2023-08-12T05:36:31;21.50;99.90
1976;DHT22;988;48.016;7.800;2023-08-12T05:38:56;21.80;99.90
1976;DHT22;988;48.016;7.800;2023-08-12T05:41:22;21.80;99.90
1976;DHT22;988;48.016;7.800;2023-08-12T05:43:48;21.60;99.90
1976;DHT22;988;48.016;7.800;2023-08-12T05:46:14;21.60;99.90
1976;DHT22;988;48.016;7.800;2023-08-12T05:48:39;20.90;99.90
1976;DHT22;988;48.016;7.800;2023-08-12T05:51:05;21.20;99.90
1976;DHT22;988;48.016;7.800;2023-08-12T05:53:30;21.80;99.90
1976;DHT22;988;48.016;7.800;2023-08-12T05:55:56;22.20;99.90
1976;DHT22;988;48.016;7.800;2023-08-12T05:58:21;22.30;99.90
1976;DHT22;988;48.016;7.800;2023-08-12T06:00:47;22.10;99.90
1976;DHT22;988;48.016;7.800;2023-08-12T06:03:12;21.30;99.90
1976;DHT22;988;48.016;7.800;2023-08-12T06:05:39;21.50;99.90
1976;DHT22;988;48.016;7.800;2023-08-12T06:08:05;21.70;99.90
1976;DHT22;988;48.016;7.800;2023-08-12T06:10:30;21.70;99.90
1976;DHT22;988;48.016;7.800;2023-08-12T06:12:56;22.20;99.90
1976;DHT22;988;48.016;7.800;2023-08-12T06:15:21;22.00;99.90
1976;DHT22;988;48.016;7.800;2023-08-12T06:17:47;22.20;99.90
1976;DHT22;988;48.016;7.800;2023-08-12T06:20:12;22.60;99.90
1976;DHT22;988;48.016;7.800;2023-08-12T06:22:38;23.00;99.90
1976;DHT22;988;48.016;7.800;2023-08-12T06:25:03;23.10;99.90
1976;DHT22;988;48.016;7.800;2023-08-12T06:27:29;22.80;99.90
1976;DHT22;988;48.016;7.800;2023-08-12T06:29:54;22.70;99.90
1976;DHT22;988;48.016;7.800;2023-08-12T06:32:20;23.10;99.90
1976;DHT22;988;48.016;7.800;2023-08-12T06:34:45;23.30;99.90
1976;DHT22;988;48.016;7.800;2023-08-12T06:37:11;23.70;99.90
1976;DHT22;988;48.016;7.800;2023-08-12T06:39:36;23.90;99.90
1976;DHT22;988;48.016;7.800;2023-08-12T06:42:02;23.90;99.90
1976;DHT22;988;48.016;7.800;2023-08-12T06:44:28;24.20;99.90
1976;DHT22;988;48.016;7.800;2023-08-12T06:46:54;23.90;99.90
1976;DHT22;988;48.016;7.800;2023-08-12T06:49:19;24.00;99.90
1976;DHT22;988;48.016;7.800;2023-08-12T06:51:45;24.30;99.90
1976;DHT22;988;48.016;7.800;2023-08-12T06:54:10;24.50;99.90
1976;DHT22;988;48.016;7.800;2023-08-12T06:56:36;24.80;99.90
1976;DHT22;988;48.016;7.800;2023-08-12T06:59:01;24.70;99.90
1976;DHT22;988;48.016;7.800;2023-08-12T07:01:27;24.80;99.90
1976;DHT22;988;48.016;7.800;2023-08-12T07:03:52;25.10;99.90
1976;DHT22;988;48.016;7.800;2023-08-12T07:06:18;25.50;99.90
1976;DHT22;988;48.016;7.800;2023-08-12T07:08:43;25.60;99.90
1976;DHT22;988;48.016;7.800;2023-08-12T07:11:08;25.60;99.90
1976;DHT22;988;48.016;7.800;2023-08-12T07:13:34;25.90;99.90
1976;DHT22;988;48.016;7.800;2023-08-12T07:16:00;25.90;99.90
1976;DHT22;988;48.016;7.800;2023-08-12T07:18:25;26.10;99.90
1976;DHT22;988;48.016;7.800;2023-08-12T07:20:51;26.30;99.90
1976;DHT22;988;48.016;7.800;2023-08-12T07:23:16;26.70;99.90
1976;DHT22;988;48.016;7.800;2023-08-12T07:25:42;27.00;99.90
1976;DHT22;988;48.016;7.800;2023-08-12T07:28:07;27.30;99.90
1976;DHT22;988;48.016;7.800;2023-08-12T07:30:35;27.20;99.90
1976;DHT22;988;48.016;7.800;2023-08-12T07:33:01;26.90;99.90
1976;DHT22;988;48.016;7.800;2023-08-12T07:35:27;27.20;99.90
1976;DHT22;988;48.016;7.800;2023-08-12T07:37:52;27.50;99.90
1976;DHT22;988;48.016;7.800;2023-08-12T07:40:17;27.90;99.90
1976;DHT22;988;48.016;7.800;2023-08-12T07:42:43;27.90;99.90
1976;DHT22;988;48.016;7.800;2023-08-12T07:45:08;27.70;99.90
1976;DHT22;988;48.016;7.800;2023-08-12T07:47:34;27.30;99.90
1976;DHT22;988;48.016;7.800;2023-08-12T07:49:59;27.40;99.90
1976;DHT22;988;48.016;7.800;2023-08-12T07:52:25;26.90;99.90
1976;DHT22;988;48.016;7.800;2023-08-12T07:54:50;26.90;99.90
1976;DHT22;988;48.016;7.800;2023-08-12T07:57:16;26.10;99.90
1976;DHT22;988;48.016;7.800;2023-08-12T07:59:41;25.30;99.90
1976;DHT22;988;48.016;7.800;2023-08-12T08:02:07;24.80;99.90
1976;DHT22;988;48.016;7.800;2023-08-12T08:04:33;24.20;99.90
1976;DHT22;988;48.016;7.800;2023-08-12T08:06:58;23.40;99.90
1976;DHT22;988;48.016;7.800;2023-08-12T08:09:24;23.10;99.90
1976;DHT22;988;48.016;7.800;2023-08-12T08:11:50;23.10;99.90
1976;DHT22;988;48.016;7.800;2023-08-12T08:14:15;22.90;99.90
1976;DHT22;988;48.016;7.800;2023-08-12T08:16:41;23.00;99.90
1976;DHT22;988;48.016;7.800;2023-08-12T08:19:07;23.10;99.90
1976;DHT22;988;48.016;7.800;2023-08-12T08:21:35;23.20;99.90
1976;DHT22;988;48.016;7.800;2023-08-12T08:24:00;23.00;99.90
1976;DHT22;988;48.016;7.800;2023-08-12T08:26:26;23.50;99.90
1976;DHT22;988;48.016;7.800;2023-08-12T08:28:52;23.70;99.90
1976;DHT22;988;48.016;7.800;2023-08-12T08:31:17;23.30;99.90
1976;DHT22;988;48.016;7.800;2023-08-12T08:33:43;23.40;99.90
1976;DHT22;988;48.016;7.800;2023-08-12T08:36:08;22.60;99.90
1976;DHT22;988;48.016;7.800;2023-08-12T08:38:34;22.90;99.90
1976;DHT22;988;48.016;7.800;2023-08-12T08:40:59;23.50;99.90
1976;DHT22;988;48.016;7.800;2023-08-12T08:43:26;24.10;99.90
1976;DHT22;988;48.016;7.800;2023-08-12T08:45:52;24.00;99.90
1976;DHT22;988;48.016;7.800;2023-08-12T08:48:18;24.40;99.90
1976;DHT22;988;48.016;7.800;2023-08-12T08:50:44;25.40;99.90
1976;DHT22;988;48.016;7.800;2023-08-12T08:53:11;26.30;99.90
1976;DHT22;988;48.016;7.800;2023-08-12T08:55:39;26.90;99.90
1976;DHT22;988;48.016;7.800;2023-08-12T08:58:05;27.20;99.90
1976;DHT22;988;48.016;7.800;2023-08-12T09:00:31;27.50;99.90
1976;DHT22;988;48.016;7.800;2023-08-12T09:02:57;28.40;99.90
1976;DHT22;988;48.016;7.800;2023-08-12T09:05:22;27.80;99.90
1976;DHT22;988;48.016;7.800;2023-08-12T09:07:48;27.30;99.90
1976;DHT22;988;48.016;7.800;2023-08-12T09:10:14;27.10;99.90
1976;DHT22;988;48.016;7.800;2023-08-12T09:12:42;26.10;99.90
1976;DHT22;988;48.016;7.800;2023-08-12T09:15:08;25.50;99.90
1976;DHT22;988;48.016;7.800;2023-08-12T09:17:34;25.40;99.90
1976;DHT22;988;48.016;7.800;2023-08-12T09:20:00;25.10;99.90
1976;DHT22;988;48.016;7.800;2023-08-12T09:22:26;25.00;99.90
1976;DHT22;988;48.016;7.800;2023-08-12T09:24:57;24.70;99.90
1976;DHT22;988;48.016;7.800;2023-08-12T09:27:23;24.20;99.90
1976;DHT22;988;48.016;7.800;2023-08-12T09:29:49;24.50;99.90
1976;DHT22;988;48.016;7.800;2023-08-12T09:32:18;24.90;99.90
1976;DHT22;988;48.016;7.800;2023-08-12T09:34:47;25.40;99.90
1976;DHT22;988;48.016;7.800;2023-08-12T09:37:13;25.30;99.90
1976;DHT22;988;48.016;7.800;2023-08-12T09:39:39;26.40;99.90
1976;DHT22;988;48.016;7.800;2023-08-12T09:42:05;27.50;99.90
1976;DHT22;988;48.016;7.800;2023-08-12T09:44:30;27.50;99.90
1976;DHT22;988;48.016;7.800;2023-08-12T09:46:59;27.10;99.90
1976;DHT22;988;48.016;7.800;2023-08-12T09:49:25;27.60;99.90
1976;DHT22;988;48.016;7.800;2023-08-12T09:51:51;27.80;99.90
1976;DHT22;988;48.016;7.800;2023-08-12T09:54:17;28.20;99.90
1976;DHT22;988;48.016;7.800;2023-08-12T09:56:43;28.00;99.90
1976;DHT22;988;48.016;7.800;2023-08-12T09:59:09;28.20;99.90
1976;DHT22;988;48.016;7.800;2023-08-12T10:01:35;28.50;99.90
1976;DHT22;988;48.016;7.800;2023-08-12T10:04:01;27.80;99.90
1976;DHT22;988;48.016;7.800;2023-08-12T10:06:29;28.40;99.90
1976;DHT22;988;48.016;7.800;2023-08-12T10:08:54;29.80;99.90
1976;DHT22;988;48.016;7.800;2023-08-12T10:11:20;31.80;99.90
1976;DHT22;988;48.016;7.800;2023-08-12T10:13:46;32.10;99.90
1976;DHT22;988;48.016;7.800;2023-08-12T10:16:12;33.40;99.90
1976;DHT22;988;48.016;7.800;2023-08-12T10:18:41;31.20;99.90
1976;DHT22;988;48.016;7.800;2023-08-12T10:21:10;31.20;99.90
1976;DHT22;988;48.016;7.800;2023-08-12T10:23:36;32.30;99.90
1976;DHT22;988;48.016;7.800;2023-08-12T10:26:02;32.80;99.90
1976;DHT22;988;48.016;7.800;2023-08-12T10:28:30;32.40;99.90
1976;DHT22;988;48.016;7.800;2023-08-12T10:31:02;33.00;99.90
1976;DHT22;988;48.016;7.800;2023-08-12T10:33:27;33.20;99.90
1976;DHT22;988;48.016;7.800;2023-08-12T10:35:56;33.70;99.90
1976;DHT22;988;48.016;7.800;2023-08-12T10:38:22;35.20;99.90
1976;DHT22;988;48.016;7.800;2023-08-12T10:40:50;33.10;99.90
1976;DHT22;988;48.016;7.800;2023-08-12T10:43:15;32.20;99.90
1976;DHT22;988;48.016;7.800;2023-08-12T10:46:02;32.20;99.90
1976;DHT22;988;48.016;7.800;2023-08-12T10:48:27;33.80;99.90
1976;DHT22;988;48.016;7.800;2023-08-12T10:50:54;34.30;99.90
1976;DHT22;988;48.016;7.800;2023-08-12T10:53:28;34.40;99.90
1976;DHT22;988;48.016;7.800;2023-08-12T10:56:02;33.30;99.90
1976;DHT22;988;48.016;7.800;2023-08-12T10:58:49;31.20;99.90
1976;DHT22;988;48.016;7.800;2023-08-12T11:01:16;30.70;99.90
1976;DHT22;988;48.016;7.800;2023-08-12T11:03:43;30.70;99.90
1976;DHT22;988;48.016;7.800;2023-08-12T11:06:12;30.30;99.90
1976;DHT22;988;48.016;7.800;2023-08-12T11:08:47;29.30;99.90
1976;DHT22;988;48.016;7.800;2023-08-12T11:11:18;28.60;99.90
1976;DHT22;988;48.016;7.800;2023-08-12T11:14:05;28.40;99.90
1976;DHT22;988;48.016;7.800;2023-08-12T11:16:36;27.30;99.90
1976;DHT22;988;48.016;7.800;2023-08-12T11:19:02;26.90;99.90
1976;DHT22;988;48.016;7.800;2023-08-12T11:21:28;25.40;99.90
1976;DHT22;988;48.016;7.800;2023-08-12T11:23:54;24.10;99.90
1976;DHT22;988;48.016;7.800;2023-08-12T11:26:19;23.80;99.90
1976;DHT22;988;48.016;7.800;2023-08-12T11:28:46;23.30;99.90
1976;DHT22;988;48.016;7.800;2023-08-12T11:31:12;22.40;99.90
1976;DHT22;988;48.016;7.800;2023-08-12T11:33:37;22.50;99.90
1976;DHT22;988;48.016;7.800;2023-08-12T11:36:03;22.80;99.90
1976;DHT22;988;48.016;7.800;2023-08-12T11:38:28;23.40;99.90
1976;DHT22;988;48.016;7.800;2023-08-12T11:40:54;23.60;99.90
1976;DHT22;988;48.016;7.800;2023-08-12T11:43:22;23.60;99.90
1976;DHT22;988;48.016;7.800;2023-08-12T11:45:48;24.00;99.90
1976;DHT22;988;48.016;7.800;2023-08-12T11:48:13;24.40;99.90
1976;DHT22;988;48.016;7.800;2023-08-12T11:50:39;24.80;99.90
1976;DHT22;988;48.016;7.800;2023-08-12T11:53:04;25.50;99.90
1976;DHT22;988;48.016;7.800;2023-08-12T11:55:30;26.60;99.90
1976;DHT22;988;48.016;7.800;2023-08-12T11:57:57;29.20;99.90
1976;DHT22;988;48.016;7.800;2023-08-12T12:00:23;33.20;99.90
1976;DHT22;988;48.016;7.800;2023-08-12T12:02:51;34.30;99.90
1976;DHT22;988;48.016;7.800;2023-08-12T12:05:17;34.50;99.90
1976;DHT22;988;48.016;7.800;2023-08-12T12:07:43;33.40;99.90
1976;DHT22;988;48.016;7.800;2023-08-12T12:10:12;31.50;99.90
1976;DHT22;988;48.016;7.800;2023-08-12T12:12:38;31.60;99.90
1976;DHT22;988;48.016;7.800;2023-08-12T12:15:03;32.50;99.90
1976;DHT22;988;48.016;7.800;2023-08-12T12:17:30;33.80;99.90
1976;DHT22;988;48.016;7.800;2023-08-12T12:19:56;36.20;99.90
1976;DHT22;988;48.016;7.800;2023-08-12T12:22:29;38.30;99.90
1976;DHT22;988;48.016;7.800;2023-08-12T12:24:57;38.10;97.40
1976;DHT22;988;48.016;7.800;2023-08-12T12:27:22;36.10;99.90
1976;DHT22;988;48.016;7.800;2023-08-12T12:29:49;35.10;98.70
1976;DHT22;988;48.016;7.800;2023-08-12T12:32:17;33.80;99.90
1976;DHT22;988;48.016;7.800;2023-08-12T12:34:43;33.20;99.90
1976;DHT22;988;48.016;7.800;2023-08-12T12:37:08;34.30;99.90
1976;DHT22;988;48.016;7.800;2023-08-12T12:39:33;35.80;99.90
1976;DHT22;988;48.016;7.800;2023-08-12T12:41:59;35.50;99.90
1976;DHT22;988;48.016;7.800;2023-08-12T12:44:25;34.30;99.90
1976;DHT22;988;48.016;7.800;2023-08-12T12:46:51;34.50;98.80
1976;DHT22;988;48.016;7.800;2023-08-12T12:49:16;35.40;99.90
1976;DHT22;988;48.016;7.800;2023-08-12T12:51:42;34.70;99.40
1976;DHT22;988;48.016;7.800;2023-08-12T12:54:07;34.80;99.90
1976;DHT22;988;48.016;7.800;2023-08-12T12:56:32;35.40;99.90
1976;DHT22;988;48.016;7.800;2023-08-12T12:58:58;34.90;99.90
1976;DHT22;988;48.016;7.800;2023-08-12T13:01:23;34.70;94.90
1976;DHT22;988;48.016;7.800;2023-08-12T13:03:49;33.60;98.30
1976;DHT22;988;48.016;7.800;2023-08-12T13:06:14;33.60;99.90
1976;DHT22;988;48.016;7.800;2023-08-12T13:08:40;34.10;99.90
1976;DHT22;988;48.016;7.800;2023-08-12T13:11:05;33.10;99.90
1976;DHT22;988;48.016;7.800;2023-08-12T13:13:31;33.10;99.90
1976;DHT22;988;48.016;7.800;2023-08-12T13:15:56;32.90;99.90
1976;DHT22;988;48.016;7.800;2023-08-12T13:18:22;31.80;99.90
1976;DHT22;988;48.016;7.800;2023-08-12T13:20:47;31.70;99.90
1976;DHT22;988;48.016;7.800;2023-08-12T13:23:13;31.90;99.90
1976;DHT22;988;48.016;7.800;2023-08-12T13:25:39;30.90;99.90
1976;DHT22;988;48.016;7.800;2023-08-12T13:28:04;30.60;99.90
1976;DHT22;988;48.016;7.800;2023-08-12T13:30:30;30.50;99.90
1976;DHT22;988;48.016;7.800;2023-08-12T13:32:56;30.20;99.90
1976;DHT22;988;48.016;7.800;2023-08-12T13:35:22;31.10;99.90
1976;DHT22;988;48.016;7.800;2023-08-12T13:37:48;31.20;99.90
1976;DHT22;988;48.016;7.800;2023-08-12T13:40:14;31.00;99.90
1976;DHT22;988;48.016;7.800;2023-08-12T13:42:41;31.00;99.90
1976;DHT22;988;48.016;7.800;2023-08-12T13:45:06;31.40;99.90
1976;DHT22;988;48.016;7.800;2023-08-12T13:47:33;31.50;99.90
1976;DHT22;988;48.016;7.800;2023-08-12T13:49:59;31.80;99.90
1976;DHT22;988;48.016;7.800;2023-08-12T13:52:24;31.90;99.90
1976;DHT22;988;48.016;7.800;2023-08-12T13:54:50;32.20;99.90
1976;DHT22;988;48.016;7.800;2023-08-12T13:57:15;32.90;99.90
1976;DHT22;988;48.016;7.800;2023-08-12T13:59:41;32.80;99.90
1976;DHT22;988;48.016;7.800;2023-08-12T14:02:11;32.10;99.90
1976;DHT22;988;48.016;7.800;2023-08-12T14:04:37;30.60;99.90
1976;DHT22;988;48.016;7.800;2023-08-12T14:07:03;30.80;99.90
1976;DHT22;988;48.016;7.800;2023-08-12T14:09:29;30.10;99.90
1976;DHT22;988;48.016;7.800;2023-08-12T14:11:54;30.20;99.90
1976;DHT22;988;48.016;7.800;2023-08-12T14:14:20;29.40;99.90
1976;DHT22;988;48.016;7.800;2023-08-12T14:16:45;29.20;99.90
1976;DHT22;988;48.016;7.800;2023-08-12T14:19:11;28.90;99.90
1976;DHT22;988;48.016;7.800;2023-08-12T14:21:36;28.30;99.90
1976;DHT22;988;48.016;7.800;2023-08-12T14:24:01;28.70;99.90
1976;DHT22;988;48.016;7.800;2023-08-12T14:26:27;28.40;99.90
1976;DHT22;988;48.016;7.800;2023-08-12T14:28:52;28.50;99.90
1976;DHT22;988;48.016;7.800;2023-08-12T14:31:18;28.60;99.90
1976;DHT22;988;48.016;7.800;2023-08-12T14:33:43;28.60;99.90
1976;DHT22;988;48.016;7.800;2023-08-12T14:36:09;28.90;99.90
1976;DHT22;988;48.016;7.800;2023-08-12T14:38:35;29.20;99.90
1976;DHT22;988;48.016;7.800;2023-08-12T14:41:00;30.30;99.90
1976;DHT22;988;48.016;7.800;2023-08-12T14:43:26;30.10;99.90
1976;DHT22;988;48.016;7.800;2023-08-12T14:45:51;30.00;99.90
1976;DHT22;988;48.016;7.800;2023-08-12T14:48:17;29.20;99.90
1976;DHT22;988;48.016;7.800;2023-08-12T14:50:43;29.30;99.90
1976;DHT22;988;48.016;7.800;2023-08-12T14:53:09;29.40;99.90
1976;DHT22;988;48.016;7.800;2023-08-12T14:55:35;29.90;99.90
1976;DHT22;988;48.016;7.800;2023-08-12T14:58:00;30.10;99.90
1976;DHT22;988;48.016;7.800;2023-08-12T15:00:26;29.40;99.90
1976;DHT22;988;48.016;7.800;2023-08-12T15:02:51;29.70;99.90
1976;DHT22;988;48.016;7.800;2023-08-12T15:05:17;29.70;99.90
1976;DHT22;988;48.016;7.800;2023-08-12T15:07:42;30.00;99.90
1976;DHT22;988;48.016;7.800;2023-08-12T15:10:08;29.90;99.90
1976;DHT22;988;48.016;7.800;2023-08-12T15:12:34;29.60;99.90
1976;DHT22;988;48.016;7.800;2023-08-12T15:14:59;29.50;99.90
1976;DHT22;988;48.016;7.800;2023-08-12T15:17:25;29.60;99.90
1976;DHT22;988;48.016;7.800;2023-08-12T15:19:50;29.50;99.90
1976;DHT22;988;48.016;7.800;2023-08-12T15:22:16;29.00;99.90
1976;DHT22;988;48.016;7.800;2023-08-12T15:24:41;29.00;99.90
1976;DHT22;988;48.016;7.800;2023-08-12T15:27:07;29.10;99.90
1976;DHT22;988;48.016;7.800;2023-08-12T15:29:32;29.00;99.90
1976;DHT22;988;48.016;7.800;2023-08-12T15:31:58;29.00;99.90
1976;DHT22;988;48.016;7.800;2023-08-12T15:34:23;29.30;99.90
1976;DHT22;988;48.016;7.800;2023-08-12T15:36:50;28.80;99.90
1976;DHT22;988;48.016;7.800;2023-08-12T15:39:15;29.10;99.90
1976;DHT22;988;48.016;7.800;2023-08-12T15:41:41;29.20;99.90
1976;DHT22;988;48.016;7.800;2023-08-12T15:44:08;29.20;99.90
1976;DHT22;988;48.016;7.800;2023-08-12T15:46:34;29.30;99.90
1976;DHT22;988;48.016;7.800;2023-08-12T15:49:00;29.10;99.90
1976;DHT22;988;48.016;7.800;2023-08-12T15:51:27;28.90;99.90
1976;DHT22;988;48.016;7.800;2023-08-12T15:53:53;28.90;99.90
1976;DHT22;988;48.016;7.800;2023-08-12T15:56:18;29.10;99.90
1976;DHT22;988;48.016;7.800;2023-08-12T15:58:44;29.20;99.90
1976;DHT22;988;48.016;7.800;2023-08-12T16:01:09;29.40;99.90
1976;DHT22;988;48.016;7.800;2023-08-12T16:03:36;29.10;99.90
1976;DHT22;988;48.016;7.800;2023-08-12T16:06:01;29.40;99.20
1976;DHT22;988;48.016;7.800;2023-08-12T16:08:28;29.50;99.00
1976;DHT22;988;48.016;7.800;2023-08-12T16:10:53;29.50;99.00